createdAt,value
2022-12-16T00:02:20.947Z,31.60
2022-12-16T00:07:42.963Z,25.98
2022-12-16T00:13:09.071Z,29.75
2022-12-16T00:18:32.703Z,34.67
2022-12-16T00:23:55.618Z,33.35
2022-12-16T00:29:17.579Z,30.83
2022-12-16T00:34:39.384Z,35.13
2022-12-16T00:40:01.363Z,31.50
2022-12-16T00:45:23.285Z,33.28
2022-12-16T00:50:54.928Z,28.83
2022-12-16T00:56:17.409Z,30.45
2022-12-16T01:01:39.299Z,26.00
2022-12-16T01:07:01.261Z,33.67
2022-12-16T01:12:23.237Z,31.73
2022-12-16T01:17:46.590Z,33.95
2022-12-16T01:23:08.800Z,32.13
2022-12-16T01:28:30.796Z,33.20
2022-12-16T01:33:52.688Z,33.13
2022-12-16T01:39:14.612Z,35.90
2022-12-16T01:44:36.498Z,35.70
2022-12-16T01:50:15.113Z,33.13
2022-12-16T01:55:50.260Z,32.55
2022-12-16T02:01:13.410Z,30.55
2022-12-16T02:06:35.379Z,29.42
2022-12-16T02:12:32.420Z,28.98
2022-12-16T02:18:20.530Z,31.42
2022-12-16T02:24:14.620Z,31.50
2022-12-16T02:29:59.726Z,29.75
2022-12-16T02:35:32.604Z,27.67
2022-12-16T02:41:01.957Z,26.15
2022-12-16T02:46:27.542Z,31.67
2022-12-16T02:51:50.036Z,27.48
2022-12-16T02:57:17.802Z,28.52
2022-12-16T03:02:48.485Z,30.27
2022-12-16T03:08:18.112Z,27.08
2022-12-16T03:13:45.118Z,27.73
2022-12-16T03:19:09.251Z,25.75
2022-12-16T03:24:31.402Z,30.83
2022-12-16T03:30:06.365Z,27.08
2022-12-16T03:35:45.248Z,29.23
2022-12-16T03:41:08.177Z,30.95
2022-12-16T03:46:30.171Z,28.02
2022-12-16T03:51:54.576Z,28.63
2022-12-16T03:57:16.519Z,24.38
2022-12-16T04:02:38.886Z,25.98
2022-12-16T04:08:02.257Z,24.92
2022-12-16T04:13:24.313Z,30.83
2022-12-16T04:18:47.531Z,29.35
2022-12-16T04:24:16.702Z,30.73
2022-12-16T04:29:38.722Z,29.30
2022-12-16T04:35:00.572Z,19.02
2022-12-16T04:40:22.376Z,29.35
2022-12-16T04:45:46.954Z,31.45
2022-12-16T04:51:08.796Z,30.73
2022-12-16T04:56:30.643Z,29.35
2022-12-16T05:01:52.588Z,29.88
2022-12-16T05:07:14.643Z,26.88
2022-12-16T05:12:36.538Z,27.75
2022-12-16T05:17:58.328Z,30.13
2022-12-16T05:23:20.128Z,25.70
2022-12-16T05:28:42.049Z,31.00
2022-12-16T05:34:03.922Z,25.58
2022-12-16T05:39:25.755Z,32.50
2022-12-16T05:44:47.612Z,31.38
2022-12-16T05:50:09.540Z,32.70
2022-12-16T05:55:34.117Z,32.28
2022-12-16T06:00:56.248Z,31.95
2022-12-16T06:06:18.075Z,31.15
2022-12-16T06:11:39.920Z,32.90
2022-12-16T06:17:01.788Z,30.67
2022-12-16T06:22:23.639Z,32.40
2022-12-16T06:27:51.215Z,29.67
2022-12-16T06:33:13.102Z,29.45
2022-12-16T06:38:34.977Z,31.92
2022-12-16T06:43:56.854Z,33.03
2022-12-16T06:49:18.779Z,30.90
2022-12-16T06:54:40.605Z,33.58
2022-12-16T07:00:02.726Z,34.03
2022-12-16T07:05:24.559Z,31.73
2022-12-16T07:10:46.396Z,29.73
2022-12-16T07:16:08.407Z,29.80
2022-12-16T07:21:30.245Z,33.53
2022-12-16T07:26:52.269Z,31.58
2022-12-16T07:32:14.126Z,33.80
2022-12-16T07:37:38.683Z,32.17
2022-12-16T07:43:00.552Z,31.33
2022-12-16T07:48:22.450Z,35.42
2022-12-16T07:53:44.311Z,31.52
2022-12-16T07:59:06.137Z,34.63
2022-12-16T08:04:27.991Z,32.75
2022-12-16T08:09:49.829Z,32.63
2022-12-16T08:15:11.702Z,33.88
2022-12-16T08:20:33.781Z,33.63
2022-12-16T08:25:55.805Z,33.22
2022-12-16T08:31:17.800Z,30.85
2022-12-16T08:36:39.751Z,32.42
2022-12-16T08:42:01.620Z,31.55
2022-12-16T08:47:23.616Z,35.00
2022-12-16T08:52:45.556Z,35.53
2022-12-16T08:58:07.433Z,33.78
2022-12-16T09:03:29.426Z,33.92
2022-12-16T09:08:51.335Z,31.85
2022-12-16T09:14:13.206Z,32.72
2022-12-16T09:19:35.045Z,34.25
2022-12-16T09:24:56.903Z,35.78
2022-12-16T09:30:18.834Z,34.80
2022-12-16T09:35:40.723Z,35.42
2022-12-16T09:41:31.467Z,31.55
2022-12-16T09:47:08.541Z,28.00
2022-12-16T09:52:36.905Z,33.70
2022-12-16T09:57:58.892Z,33.55
2022-12-16T10:03:34.753Z,38.30
2022-12-16T10:09:02.371Z,34.97
2022-12-16T10:14:36.508Z,33.42
2022-12-16T10:20:16.548Z,34.30
2022-12-16T10:25:52.797Z,32.10
2022-12-16T10:31:17.950Z,30.27
2022-12-16T10:36:41.517Z,31.05
2022-12-16T10:42:04.464Z,35.25
2022-12-16T10:47:26.342Z,32.50
2022-12-16T10:52:56.502Z,32.83
2022-12-16T10:58:36.141Z,31.48
2022-12-16T11:03:58.051Z,31.52
2022-12-16T11:09:25.734Z,36.50
2022-12-16T11:15:27.023Z,34.35
2022-12-16T11:20:34.766Z,35.50
2022-12-16T11:26:17.643Z,36.22
2022-12-16T11:31:39.580Z,36.45
2022-12-16T11:37:02.258Z,34.97
2022-12-16T11:42:27.770Z,36.78
2022-12-16T11:48:07.759Z,30.70
2022-12-16T11:53:36.351Z,37.80
2022-12-16T11:59:04.569Z,35.22
2022-12-16T12:04:26.547Z,33.60
2022-12-16T12:10:02.420Z,34.72
2022-12-16T12:15:37.114Z,32.03
2022-12-16T12:21:24.702Z,32.83
2022-12-16T12:27:12.334Z,32.40
2022-12-16T12:32:47.385Z,30.73
2022-12-16T12:38:29.606Z,30.70
2022-12-16T12:44:06.352Z,32.38
2022-12-16T12:49:52.940Z,31.73
2022-12-16T12:55:28.687Z,29.70
2022-12-16T13:00:55.350Z,31.48
2022-12-16T13:06:18.963Z,31.45
2022-12-16T13:12:08.427Z,31.40
2022-12-16T13:17:57.341Z,31.77
2022-12-16T13:23:40.947Z,32.20
2022-12-16T13:29:24.262Z,30.27
2022-12-16T13:34:46.300Z,30.08
2022-12-16T13:40:25.367Z,28.05
2022-12-16T13:46:14.388Z,30.08
2022-12-16T13:51:38.957Z,30.95
2022-12-16T13:57:03.608Z,29.00
2022-12-16T14:02:40.574Z,29.63
2022-12-16T14:08:03.361Z,29.40
2022-12-16T14:13:49.955Z,31.23
2022-12-16T14:19:14.437Z,30.67
2022-12-16T14:24:38.570Z,31.92
2022-12-16T14:30:01.976Z,29.98
2022-12-16T14:35:26.385Z,31.70
2022-12-16T14:40:51.639Z,29.88
2022-12-16T14:46:31.678Z,31.50
2022-12-16T14:51:53.539Z,31.45
2022-12-16T14:57:27.333Z,30.98
2022-12-16T15:02:51.411Z,32.05
2022-12-16T15:08:13.704Z,34.22
2022-12-16T15:13:36.558Z,29.58
2022-12-16T15:19:01.367Z,30.85
2022-12-16T15:24:25.661Z,31.15
2022-12-16T15:29:47.523Z,34.20
2022-12-16T15:35:27.663Z,29.48
2022-12-16T15:40:51.309Z,33.00
2022-12-16T15:46:32.968Z,29.65
2022-12-16T15:51:54.824Z,26.08
2022-12-16T15:57:34.542Z,25.92
2022-12-16T16:02:56.496Z,29.92
2022-12-16T16:08:18.433Z,30.00
2022-12-16T16:13:41.611Z,26.50
2022-12-16T16:19:04.437Z,27.23
2022-12-16T16:24:26.275Z,25.77
2022-12-16T16:29:48.077Z,28.35
2022-12-16T16:35:09.918Z,25.75
2022-12-16T16:40:35.293Z,23.38
2022-12-16T16:45:57.567Z,26.53
2022-12-16T16:51:19.500Z,24.52
2022-12-16T16:56:41.476Z,25.17
2022-12-16T17:02:10.122Z,25.55
2022-12-16T17:07:32.053Z,30.17
2022-12-16T17:12:54.029Z,26.30
2022-12-16T17:18:16.076Z,28.50
2022-12-16T17:23:38.249Z,27.73
2022-12-16T17:29:00.111Z,27.38
2022-12-16T17:34:21.970Z,28.08
2022-12-16T17:39:43.767Z,24.70
2022-12-16T17:45:06.090Z,27.27
2022-12-16T17:50:27.920Z,28.90
2022-12-16T17:55:49.783Z,27.77
2022-12-16T18:01:11.628Z,27.52
2022-12-16T18:06:33.633Z,30.42
2022-12-16T18:11:55.506Z,28.77
2022-12-16T18:17:17.386Z,28.95
2022-12-16T18:22:39.272Z,29.27
2022-12-16T18:28:01.228Z,28.92
2022-12-16T18:33:23.060Z,29.23
2022-12-16T18:38:45.013Z,30.50
2022-12-16T18:44:10.306Z,26.00
2022-12-16T18:49:32.324Z,23.10
2022-12-16T18:54:54.329Z,29.10
2022-12-16T19:00:16.449Z,27.63
2022-12-16T19:05:38.368Z,27.92
2022-12-16T19:11:00.324Z,28.00
2022-12-16T19:16:22.509Z,24.83
2022-12-16T19:27:26.348Z,27.30
2022-12-16T19:32:48.817Z,29.50
2022-12-16T19:38:14.274Z,27.42
2022-12-16T19:43:36.155Z,25.87
2022-12-16T19:48:58.046Z,27.48
2022-12-16T19:54:19.932Z,26.38
2022-12-16T19:59:41.816Z,27.42
2022-12-16T20:05:03.932Z,27.77
2022-12-16T20:10:25.842Z,30.63
2022-12-16T20:15:47.730Z,30.73
2022-12-16T20:21:09.741Z,32.85
2022-12-16T20:26:31.658Z,34.10
2022-12-16T20:31:55.751Z,33.20
2022-12-16T20:37:17.866Z,32.80
2022-12-16T20:42:39.811Z,30.27
2022-12-16T20:48:02.580Z,32.20
2022-12-16T20:53:24.467Z,30.38
2022-12-16T20:58:46.305Z,31.55
2022-12-16T21:04:08.212Z,31.27
2022-12-16T21:09:31.493Z,28.30
2022-12-16T21:14:53.381Z,29.90
2022-12-16T21:20:15.642Z,33.10
2022-12-16T21:25:37.431Z,32.30
2022-12-16T21:30:59.673Z,32.45
2022-12-16T21:36:21.495Z,30.58
2022-12-16T21:41:43.461Z,31.67
2022-12-16T21:47:05.294Z,32.92
2022-12-16T21:52:27.175Z,31.90
2022-12-16T21:57:49.054Z,33.90
2022-12-16T22:03:10.913Z,31.70
2022-12-16T22:08:32.924Z,29.63
2022-12-16T22:13:54.874Z,29.52
2022-12-16T22:19:18.187Z,32.38
2022-12-16T22:24:40.041Z,31.13
2022-12-16T22:30:02.010Z,29.10
2022-12-16T22:35:23.910Z,28.67
2022-12-16T22:40:57.165Z,29.13
2022-12-16T22:46:19.127Z,27.33
2022-12-16T22:51:41.053Z,24.90
2022-12-16T22:57:02.870Z,28.50
2022-12-16T23:02:24.698Z,27.60
2022-12-16T23:07:46.753Z,25.27
2022-12-16T23:13:11.041Z,26.55
2022-12-16T23:18:32.885Z,26.50
2022-12-16T23:23:57.008Z,25.73
2022-12-16T23:29:19.080Z,26.58
2022-12-16T23:32:29.617Z,25.98
2022-12-16T23:34:45.713Z,24.95
2022-12-16T23:40:08.819Z,26.38
2022-12-16T23:45:31.994Z,28.25
2022-12-16T23:50:54.552Z,25.70
2022-12-16T23:56:18.201Z,25.35
